sensor_id;sensor_type;location;lat;lon;timestamp;pressure;altitude;pressure_sealevel;temperature;humidity
9289;BME280;4683;50.864;12.086;2022-12-24T01:17:45;98065.19;;;11.43;100.00
9289;BME280;4683;50.864;12.086;2022-12-24T01:20:16;98062.78;;;11.35;100.00
9289;BME280;4683;50.864;12.086;2022-12-24T01:22:44;98071.31;;;11.37;100.00
9289;BME280;4683;50.864;12.086;2022-12-24T01:25:13;98074.59;;;11.26;100.00
9289;BME280;4683;50.864;12.086;2022-12-24T01:27:42;98078.44;;;11.30;100.00
9289;BME280;4683;50.864;12.086;2022-12-24T01:30:13;98076.78;;;11.42;100.00
9289;BME280;4683;50.864;12.086;2022-12-24T01:32:42;98081.88;;;11.37;100.00
9289;BME280;4683;50.864;12.086;2022-12-24T01:35:13;98084.69;;;11.42;100.00
9289;BME280;4683;50.864;12.086;2022-12-24T01:37:43;98079.88;;;11.33;100.00
9289;BME280;4683;50.864;12.086;2022-12-24T01:40:15;98084.75;;;11.29;100.00
9289;BME280;4683;50.864;12.086;2022-12-24T01:43:11;98087.63;;;11.28;100.00
9289;BME280;4683;50.864;12.086;2022-12-24T01:45:56;98089.81;;;11.31;100.00
9289;BME280;4683;50.864;12.086;2022-12-24T01:48:52;98101.84;;;11.20;100.00
9289;BME280;4683;50.864;12.086;2022-12-24T01:51:28;98103.44;;;11.28;100.00
9289;BME280;4683;50.864;12.086;2022-12-24T01:54:01;98105.28;;;11.27;100.00
9289;BME280;4683;50.864;12.086;2022-12-24T01:56:32;98104.63;;;11.38;100.00
9289;BME280;4683;50.864;12.086;2022-12-24T01:59:12;98102.66;;;11.27;100.00
9289;BME280;4683;50.864;12.086;2022-12-24T02:01:41;98097.38;;;11.27;100.00
9289;BME280;4683;50.864;12.086;2022-12-24T02:04:16;98101.41;;;11.36;100.00
9289;BME280;4683;50.864;12.086;2022-12-24T02:06:49;98099.38;;;11.25;100.00
9289;BME280;4683;50.864;12.086;2022-12-24T02:09:18;98107.06;;;11.40;100.00
9289;BME280;4683;50.864;12.086;2022-12-24T02:11:47;98105.47;;;11.26;100.00
9289;BME280;4683;50.864;12.086;2022-12-24T02:14:16;98109.75;;;11.20;100.00
9289;BME280;4683;50.864;12.086;2022-12-24T02:16:56;98119.25;;;11.34;100.00
9289;BME280;4683;50.864;12.086;2022-12-24T02:23:02;98123.31;;;11.30;100.00
9289;BME280;4683;50.864;12.086;2022-12-24T02:25:55;98131.06;;;11.25;100.00
9289;BME280;4683;50.864;12.086;2022-12-24T02:28:45;98146.31;;;11.23;100.00
9289;BME280;4683;50.864;12.086;2022-12-24T02:31:29;98140.22;;;11.16;100.00
9289;BME280;4683;50.864;12.086;2022-12-24T02:34:07;98143.03;;;11.34;100.00
9289;BME280;4683;50.864;12.086;2022-12-24T02:36:45;98154.38;;;11.41;100.00
9289;BME280;4683;50.864;12.086;2022-12-24T02:39:21;98156.25;;;11.21;100.00
9289;BME280;4683;50.864;12.086;2022-12-24T02:41:55;98168.63;;;11.34;100.00
9289;BME280;4683;50.864;12.086;2022-12-24T02:44:39;98172.28;;;11.33;100.00
9289;BME280;4683;50.864;12.086;2022-12-24T02:47:13;98175.72;;;11.33;100.00
9289;BME280;4683;50.864;12.086;2022-12-24T02:49:44;98178.97;;;11.35;100.00
9289;BME280;4683;50.864;12.086;2022-12-24T02:52:29;98180.00;;;11.21;100.00
9289;BME280;4683;50.864;12.086;2022-12-24T02:55:03;98175.72;;;11.33;100.00
9289;BME280;4683;50.864;12.086;2022-12-24T02:58:09;98186.09;;;11.22;100.00
9289;BME280;4683;50.864;12.086;2022-12-24T03:00:52;98184.31;;;11.22;100.00
9289;BME280;4683;50.864;12.086;2022-12-24T03:03:59;98188.34;;;11.11;100.00
9289;BME280;4683;50.864;12.086;2022-12-24T03:06:41;98200.13;;;11.22;100.00
9289;BME280;4683;50.864;12.086;2022-12-24T03:09:19;98198.09;;;11.24;100.00
9289;BME280;4683;50.864;12.086;2022-12-24T03:11:57;98201.13;;;11.28;100.00
9289;BME280;4683;50.864;12.086;2022-12-24T03:14:29;98193.22;;;11.21;100.00
9289;BME280;4683;50.864;12.086;2022-12-24T03:16:59;98200.13;;;11.22;100.00
9289;BME280;4683;50.864;12.086;2022-12-24T04:20:47;98324.19;;;11.09;100.00
9289;BME280;4683;50.864;12.086;2022-12-24T04:23:15;98331.50;;;11.13;100.00
9289;BME280;4683;50.864;12.086;2022-12-24T04:25:44;98329.66;;;11.07;100.00
9289;BME280;4683;50.864;12.086;2022-12-24T04:28:12;98342.69;;;11.09;100.00
9289;BME280;4683;50.864;12.086;2022-12-24T04:30:41;98342.88;;;11.14;100.00
9289;BME280;4683;50.864;12.086;2022-12-24T04:33:10;98354.44;;;11.20;100.00
9289;BME280;4683;50.864;12.086;2022-12-24T04:35:39;98354.84;;;11.10;100.00
9289;BME280;4683;50.864;12.086;2022-12-24T04:38:09;98354.25;;;11.21;100.00
9289;BME280;4683;50.864;12.086;2022-12-24T04:40:37;98359.31;;;11.16;100.00
9289;BME280;4683;50.864;12.086;2022-12-24T04:43:06;98361.34;;;11.07;100.00
9289;BME280;4683;50.864;12.086;2022-12-24T04:45:34;98360.72;;;11.12;100.00
9289;BME280;4683;50.864;12.086;2022-12-24T04:48:02;98374.31;;;11.02;100.00
9289;BME280;4683;50.864;12.086;2022-12-24T04:50:30;98371.69;;;10.96;100.00
9289;BME280;4683;50.864;12.086;2022-12-24T04:52:59;98373.03;;;10.72;100.00
9289;BME280;4683;50.864;12.086;2022-12-24T04:55:28;98364.91;;;10.66;100.00
9289;BME280;4683;50.864;12.086;2022-12-24T04:57:56;98368.16;;;10.75;100.00
9289;BME280;4683;50.864;12.086;2022-12-24T05:00:25;98365.91;;;10.65;100.00
9289;BME280;4683;50.864;12.086;2022-12-24T05:02:54;98373.44;;;10.69;100.00
9289;BME280;4683;50.864;12.086;2022-12-24T05:05:22;98369.78;;;10.76;100.00
9289;BME280;4683;50.864;12.086;2022-12-24T05:07:51;98371.34;;;10.57;100.00
9289;BME280;4683;50.864;12.086;2022-12-24T05:10:19;98372.91;;;10.38;100.00
9289;BME280;4683;50.864;12.086;2022-12-24T05:12:49;98380.44;;;10.41;100.00
9289;BME280;4683;50.864;12.086;2022-12-24T05:15:18;98383.25;;;10.40;100.00
9289;BME280;4683;50.864;12.086;2022-12-24T05:17:46;98395.44;;;10.41;100.00
9289;BME280;4683;50.864;12.086;2022-12-24T07:19:49;98583.31;;;9.85;100.00
9289;BME280;4683;50.864;12.086;2022-12-24T07:22:18;98582.44;;;9.78;100.00
9289;BME280;4683;50.864;12.086;2022-12-24T07:24:46;98593.19;;;9.77;100.00
9289;BME280;4683;50.864;12.086;2022-12-24T07:27:14;98596.94;;;9.68;100.00
9289;BME280;4683;50.864;12.086;2022-12-24T07:29:43;98605.75;;;9.60;100.00
9289;BME280;4683;50.864;12.086;2022-12-24T07:32:11;98599.69;;;9.45;100.00
9289;BME280;4683;50.864;12.086;2022-12-24T07:34:39;98605.97;;;9.44;100.00
9289;BME280;4683;50.864;12.086;2022-12-24T07:37:09;98612.78;;;9.38;100.00
9289;BME280;4683;50.864;12.086;2022-12-24T07:39:39;98609.88;;;9.33;100.00
9289;BME280;4683;50.864;12.086;2022-12-24T07:42:08;98612.94;;;9.51;100.00
9289;BME280;4683;50.864;12.086;2022-12-24T07:44:37;98623.53;;;9.58;100.00
9289;BME280;4683;50.864;12.086;2022-12-24T07:47:05;98616.28;;;9.60;100.00
9289;BME280;4683;50.864;12.086;2022-12-24T07:49:33;98623.28;;;9.68;100.00
9289;BME280;4683;50.864;12.086;2022-12-24T07:52:02;98632.59;;;9.70;100.00
9289;BME280;4683;50.864;12.086;2022-12-24T07:54:33;98631.34;;;9.66;100.00
9289;BME280;4683;50.864;12.086;2022-12-24T07:57:01;98644.59;;;9.73;100.00
9289;BME280;4683;50.864;12.086;2022-12-24T07:59:29;98645.56;;;9.72;100.00
9289;BME280;4683;50.864;12.086;2022-12-24T08:01:57;98640.91;;;9.88;100.00
9289;BME280;4683;50.864;12.086;2022-12-24T08:04:26;98646.41;;;10.08;100.00
9289;BME280;4683;50.864;12.086;2022-12-24T08:06:54;98654.59;;;10.20;100.00
9289;BME280;4683;50.864;12.086;2022-12-24T08:09:23;98655.38;;;10.14;100.00
9289;BME280;4683;50.864;12.086;2022-12-24T08:11:52;98663.88;;;10.16;100.00
9289;BME280;4683;50.864;12.086;2022-12-24T08:14:20;98660.16;;;10.25;100.00
9289;BME280;4683;50.864;12.086;2022-12-24T08:16:49;98670.47;;;10.41;100.00
9289;BME280;4683;50.864;12.086;2022-12-24T08:19:17;98666.81;;;10.43;100.00
9289;BME280;4683;50.864;12.086;2022-12-24T08:21:45;98671.72;;;10.46;100.00
9289;BME280;4683;50.864;12.086;2022-12-24T08:24:14;98678.50;;;10.55;100.00
9289;BME280;4683;50.864;12.086;2022-12-24T08:26:42;98670.50;;;10.48;100.00
9289;BME280;4683;50.864;12.086;2022-12-24T08:29:16;98675.59;;;10.50;100.00
9289;BME280;4683;50.864;12.086;2022-12-24T08:31:45;98681.25;;;10.47;100.00
9289;BME280;4683;50.864;12.086;2022-12-24T08:34:13;98687.13;;;10.49;100.00
9289;BME280;4683;50.864;12.086;2022-12-24T08:36:46;98691.44;;;10.50;100.00
9289;BME280;4683;50.864;12.086;2022-12-24T08:39:14;98689.28;;;10.38;100.00
9289;BME280;4683;50.864;12.086;2022-12-24T08:41:42;98688.84;;;10.35;100.00
9289;BME280;4683;50.864;12.086;2022-12-24T08:44:11;98691.78;;;10.25;100.00
9289;BME280;4683;50.864;12.086;2022-12-24T08:46:41;98698.97;;;10.31;100.00
9289;BME280;4683;50.864;12.086;2022-12-24T08:49:09;98706.69;;;10.33;100.00
9289;BME280;4683;50.864;12.086;2022-12-24T08:51:37;98701.03;;;10.36;100.00
9289;BME280;4683;50.864;12.086;2022-12-24T08:54:05;98707.38;;;10.41;100.00
9289;BME280;4683;50.864;12.086;2022-12-24T08:56:34;98704.38;;;10.45;100.00
9289;BME280;4683;50.864;12.086;2022-12-24T08:59:03;98707.44;;;10.48;100.00
9289;BME280;4683;50.864;12.086;2022-12-24T09:01:31;98716.00;;;10.35;100.00
9289;BME280;4683;50.864;12.086;2022-12-24T09:04:06;98720.06;;;10.31;100.00
9289;BME280;4683;50.864;12.086;2022-12-24T09:06:35;98710.56;;;10.37;100.00
9289;BME280;4683;50.864;12.086;2022-12-24T09:09:04;98714.50;;;10.26;100.00
9289;BME280;4683;50.864;12.086;2022-12-24T09:11:34;98718.16;;;10.25;100.00
9289;BME280;4683;50.864;12.086;2022-12-24T09:14:04;98726.78;;;10.19;100.00
9289;BME280;4683;50.864;12.086;2022-12-24T09:16:32;98726.41;;;10.22;100.00
9289;BME280;4683;50.864;12.086;2022-12-24T09:19:00;98731.25;;;10.19;100.00
9289;BME280;4683;50.864;12.086;2022-12-24T10:22:58;98787.38;;;11.13;100.00
9289;BME280;4683;50.864;12.086;2022-12-24T10:25:33;98791.91;;;11.26;100.00
9289;BME280;4683;50.864;12.086;2022-12-24T10:28:13;98794.13;;;11.22;100.00
9289;BME280;4683;50.864;12.086;2022-12-24T10:30:44;98792.78;;;11.33;100.00
9289;BME280;4683;50.864;12.086;2022-12-24T10:33:19;98785.00;;;11.53;100.00
9289;BME280;4683;50.864;12.086;2022-12-24T10:35:54;98787.56;;;11.74;100.00
9289;BME280;4683;50.864;12.086;2022-12-24T10:38:25;98789.06;;;11.83;100.00
9289;BME280;4683;50.864;12.086;2022-12-24T10:40:55;98798.13;;;11.74;100.00
9289;BME280;4683;50.864;12.086;2022-12-24T10:43:28;98795.94;;;11.78;100.00
9289;BME280;4683;50.864;12.086;2022-12-24T10:46:00;98795.97;;;11.84;100.00
9289;BME280;4683;50.864;12.086;2022-12-24T10:48:37;98797.81;;;11.84;100.00
9289;BME280;4683;50.864;12.086;2022-12-24T10:51:14;98799.91;;;11.67;100.00
9289;BME280;4683;50.864;12.086;2022-12-24T10:53:55;98802.81;;;11.72;100.00
9289;BME280;4683;50.864;12.086;2022-12-24T10:56:25;98806.69;;;11.76;100.00
9289;BME280;4683;50.864;12.086;2022-12-24T10:58:54;98803.81;;;11.71;100.00
9289;BME280;4683;50.864;12.086;2022-12-24T11:01:43;98806.03;;;11.67;100.00
9289;BME280;4683;50.864;12.086;2022-12-24T11:04:17;98809.06;;;11.64;100.00
9289;BME280;4683;50.864;12.086;2022-12-24T11:06:53;98804.44;;;11.73;100.00
9289;BME280;4683;50.864;12.086;2022-12-24T11:09:27;98809.50;;;11.68;100.00
9289;BME280;4683;50.864;12.086;2022-12-24T11:11:59;98809.56;;;11.53;100.00
9289;BME280;4683;50.864;12.086;2022-12-24T11:14:33;98808.75;;;11.53;100.00
9289;BME280;4683;50.864;12.086;2022-12-24T11:17:03;98808.00;;;11.59;100.00
9289;BME280;4683;50.864;12.086;2022-12-24T11:19:34;98813.88;;;11.54;100.00
9289;BME280;4683;50.864;12.086;2022-12-24T11:22:04;98817.66;;;11.45;100.00
9289;BME280;4683;50.864;12.086;2022-12-24T11:24:36;98821.97;;;11.53;100.00
9289;BME280;4683;50.864;12.086;2022-12-24T11:27:40;98821.97;;;11.53;100.00
9289;BME280;4683;50.864;12.086;2022-12-24T11:30:24;98818.03;;;11.70;100.00
9289;BME280;4683;50.864;12.086;2022-12-24T11:33:26;98817.31;;;11.83;100.00
9289;BME280;4683;50.864;12.086;2022-12-24T11:36:01;98826.94;;;11.90;100.00
9289;BME280;4683;50.864;12.086;2022-12-24T11:38:32;98833.47;;;11.95;100.00
9289;BME280;4683;50.864;12.086;2022-12-24T11:41:08;98829.03;;;12.02;100.00
9289;BME280;4683;50.864;12.086;2022-12-24T11:43:44;98826.31;;;11.88;100.00
9289;BME280;4683;50.864;12.086;2022-12-24T11:46:35;98825.94;;;11.98;100.00
9289;BME280;4683;50.864;12.086;2022-12-24T11:49:15;98826.88;;;11.84;100.00
9289;BME280;4683;50.864;12.086;2022-12-24T11:52:26;98823.16;;;11.78;100.00
9289;BME280;4683;50.864;12.086;2022-12-24T11:55:17;98813.75;;;11.97;100.00
9289;BME280;4683;50.864;12.086;2022-12-24T11:57:57;98812.06;;;11.89;100.00
9289;BME280;4683;50.864;12.086;2022-12-24T12:00:28;98819.53;;;12.14;100.00
9289;BME280;4683;50.864;12.086;2022-12-24T12:02:59;98820.94;;;12.16;100.00
9289;BME280;4683;50.864;12.086;2022-12-24T12:05:32;98829.84;;;12.02;100.00
9289;BME280;4683;50.864;12.086;2022-12-24T12:08:09;98827.75;;;11.91;100.00
9289;BME280;4683;50.864;12.086;2022-12-24T12:10:58;98821.66;;;11.90;100.00
9289;BME280;4683;50.864;12.086;2022-12-24T12:13:30;98830.66;;;12.03;100.00
9289;BME280;4683;50.864;12.086;2022-12-24T12:16:13;98827.78;;;11.98;100.00
9289;BME280;4683;50.864;12.086;2022-12-24T12:18:49;98832.59;;;11.87;100.00
9289;BME280;4683;50.864;12.086;2022-12-24T12:21:24;98822.25;;;11.92;100.00
9289;BME280;4683;50.864;12.086;2022-12-24T12:23:59;98837.16;;;12.00;100.00
9289;BME280;4683;50.864;12.086;2022-12-24T12:26:31;98834.94;;;12.04;100.00
9289;BME280;4683;50.864;12.086;2022-12-24T12:29:13;98838.50;;;12.24;100.00
9289;BME280;4683;50.864;12.086;2022-12-24T12:31:53;98829.81;;;12.43;100.00
9289;BME280;4683;50.864;12.086;2022-12-24T12:34:28;98828.22;;;12.49;100.00
9289;BME280;4683;50.864;12.086;2022-12-24T12:37:10;98835.56;;;12.12;100.00
9289;BME280;4683;50.864;12.086;2022-12-24T12:39:40;98842.38;;;12.28;100.00
9289;BME280;4683;50.864;12.086;2022-12-24T12:42:19;98843.31;;;12.14;100.00
9289;BME280;4683;50.864;12.086;2022-12-24T12:45:27;98847.59;;;12.15;100.00
9289;BME280;4683;50.864;12.086;2022-12-24T12:51:02;98854.66;;;12.08;100.00
9289;BME280;4683;50.864;12.086;2022-12-24T12:54:08;98854.56;;;11.88;100.00
9289;BME280;4683;50.864;12.086;2022-12-24T12:56:45;98850.97;;;12.02;100.00
9289;BME280;4683;50.864;12.086;2022-12-24T12:59:19;98857.50;;;12.00;100.00
9289;BME280;4683;50.864;12.086;2022-12-24T13:02:07;98857.88;;;11.97;100.00
9289;BME280;4683;50.864;12.086;2022-12-24T13:08:25;98868.66;;;12.02;100.00
9289;BME280;4683;50.864;12.086;2022-12-24T13:11:26;98878.44;;;11.73;100.00
9289;BME280;4683;50.864;12.086;2022-12-24T13:14:26;98865.94;;;11.88;100.00
9289;BME280;4683;50.864;12.086;2022-12-24T13:17:34;98865.13;;;11.88;100.00
9289;BME280;4683;50.864;12.086;2022-12-24T13:20:18;98880.56;;;11.84;100.00
9289;BME280;4683;50.864;12.086;2022-12-24T13:22:59;98875.91;;;11.86;100.00
9289;BME280;4683;50.864;12.086;2022-12-24T13:25:36;98883.03;;;11.86;100.00
9289;BME280;4683;50.864;12.086;2022-12-24T13:28:34;98884.97;;;11.77;100.00
9289;BME280;4683;50.864;12.086;2022-12-24T13:31:29;98887.38;;;11.72;100.00
9289;BME280;4683;50.864;12.086;2022-12-24T13:34:01;98895.13;;;11.80;100.00
9289;BME280;4683;50.864;12.086;2022-12-24T13:37:17;98896.72;;;11.75;100.00
9289;BME280;4683;50.864;12.086;2022-12-24T13:40:15;98904.63;;;11.68;100.00
9289;BME280;4683;50.864;12.086;2022-12-24T13:43:05;98912.13;;;11.71;100.00
9289;BME280;4683;50.864;12.086;2022-12-24T13:45:45;98905.22;;;11.70;100.00
9289;BME280;4683;50.864;12.086;2022-12-24T13:48:31;98916.03;;;11.75;100.00
9289;BME280;4683;50.864;12.086;2022-12-24T13:51:18;98913.84;;;11.57;100.00
9289;BME280;4683;50.864;12.086;2022-12-24T13:53:48;98913.72;;;11.65;100.00
9289;BME280;4683;50.864;12.086;2022-12-24T13:56:24;98917.38;;;11.64;100.00
9289;BME280;4683;50.864;12.086;2022-12-24T13:59:16;98917.59;;;11.63;100.00
9289;BME280;4683;50.864;12.086;2022-12-24T14:01:48;98918.25;;;11.72;100.00
9289;BME280;4683;50.864;12.086;2022-12-24T14:04:24;98918.31;;;11.57;100.00
9289;BME280;4683;50.864;12.086;2022-12-24T14:06:59;98917.00;;;11.67;100.00
9289;BME280;4683;50.864;12.086;2022-12-24T14:09:30;98916.13;;;11.60;100.00
9289;BME280;4683;50.864;12.086;2022-12-24T14:12:45;98920.41;;;11.61;100.00
9289;BME280;4683;50.864;12.086;2022-12-24T14:16:00;98930.03;;;11.48;100.00
9289;BME280;4683;50.864;12.086;2022-12-24T14:18:36;98922.34;;;11.53;100.00
9289;BME280;4683;50.864;12.086;2022-12-24T14:21:13;98920.97;;;11.57;100.00
9289;BME280;4683;50.864;12.086;2022-12-24T14:23:53;98932.59;;;11.62;100.00
9289;BME280;4683;50.864;12.086;2022-12-24T18:25:55;99152.00;;;9.18;100.00
9289;BME280;4683;50.864;12.086;2022-12-24T18:28:27;99149.50;;;9.25;100.00
9289;BME280;4683;50.864;12.086;2022-12-24T18:31:00;99152.75;;;9.35;100.00
9289;BME280;4683;50.864;12.086;2022-12-24T18:33:30;99160.13;;;9.48;100.00
9289;BME280;4683;50.864;12.086;2022-12-24T18:35:59;99164.34;;;9.57;100.00
9289;BME280;4683;50.864;12.086;2022-12-24T18:38:28;99170.63;;;9.56;100.00
9289;BME280;4683;50.864;12.086;2022-12-24T18:41:03;99168.28;;;9.61;100.00
9289;BME280;4683;50.864;12.086;2022-12-24T18:43:36;99166.47;;;9.61;100.00
9289;BME280;4683;50.864;12.086;2022-12-24T18:46:06;99170.94;;;9.61;100.00
9289;BME280;4683;50.864;12.086;2022-12-24T18:48:35;99172.91;;;9.59;100.00
9289;BME280;4683;50.864;12.086;2022-12-24T18:51:04;99167.81;;;9.57;100.00
9289;BME280;4683;50.864;12.086;2022-12-24T18:53:34;99180.69;;;9.44;100.00
9289;BME280;4683;50.864;12.086;2022-12-24T18:56:07;99183.03;;;9.31;100.00
9289;BME280;4683;50.864;12.086;2022-12-24T18:58:37;99180.09;;;9.26;100.00
9289;BME280;4683;50.864;12.086;2022-12-24T19:01:12;99178.31;;;9.18;100.00
9289;BME280;4683;50.864;12.086;2022-12-24T19:03:41;99178.66;;;9.15;100.00
9289;BME280;4683;50.864;12.086;2022-12-24T19:06:10;99172.75;;;9.13;100.00
9289;BME280;4683;50.864;12.086;2022-12-24T19:08:39;99172.06;;;9.19;100.00
9289;BME280;4683;50.864;12.086;2022-12-24T19:11:10;99174.53;;;9.21;100.00
9289;BME280;4683;50.864;12.086;2022-12-24T19:13:45;99180.59;;;9.21;100.00
9289;BME280;4683;50.864;12.086;2022-12-24T19:16:14;99186.88;;;9.12;100.00
9289;BME280;4683;50.864;12.086;2022-12-24T19:18:43;99196.97;;;8.92;100.00
9289;BME280;4683;50.864;12.086;2022-12-24T19:21:13;99202.25;;;8.68;100.00
9289;BME280;4683;50.864;12.086;2022-12-24T19:23:46;99197.78;;;8.44;100.00
9289;BME280;4683;50.864;12.086;2022-12-24T19:36:30;99205.44;;;7.62;100.00
9289;BME280;4683;50.864;12.086;2022-12-24T19:39:00;99206.91;;;7.56;100.00
9289;BME280;4683;50.864;12.086;2022-12-24T19:41:29;99204.75;;;7.52;100.00
9289;BME280;4683;50.864;12.086;2022-12-24T19:44:00;99205.88;;;7.49;100.00
9289;BME280;4683;50.864;12.086;2022-12-24T19:46:32;99210.78;;;7.44;100.00
9289;BME280;4683;50.864;12.086;2022-12-24T19:49:05;99209.91;;;7.35;100.00
9289;BME280;4683;50.864;12.086;2022-12-24T19:51:36;99223.00;;;7.27;100.00
9289;BME280;4683;50.864;12.086;2022-12-24T19:54:05;99219.81;;;7.16;100.00
9289;BME280;4683;50.864;12.086;2022-12-24T19:56:35;99232.56;;;7.10;100.00
9289;BME280;4683;50.864;12.086;2022-12-24T19:59:05;99241.25;;;7.11;100.00
9289;BME280;4683;50.864;12.086;2022-12-24T20:01:34;99240.97;;;7.14;100.00
9289;BME280;4683;50.864;12.086;2022-12-24T20:04:06;99242.69;;;7.05;100.00
9289;BME280;4683;50.864;12.086;2022-12-24T20:06:36;99246.38;;;6.95;100.00
9289;BME280;4683;50.864;12.086;2022-12-24T20:09:07;99245.66;;;6.84;100.00
9289;BME280;4683;50.864;12.086;2022-12-24T20:11:35;99247.53;;;6.74;100.00
9289;BME280;4683;50.864;12.086;2022-12-24T20:14:07;99240.88;;;6.62;100.00
9289;BME280;4683;50.864;12.086;2022-12-24T20:16:42;99242.38;;;6.47;100.00
9289;BME280;4683;50.864;12.086;2022-12-24T20:19:14;99246.19;;;6.34;100.00
9289;BME280;4683;50.864;12.086;2022-12-24T20:21:48;99249.56;;;6.27;100.00
9289;BME280;4683;50.864;12.086;2022-12-24T20:24:22;99251.66;;;6.23;100.00
9289;BME280;4683;50.864;12.086;2022-12-24T23:26:40;99364.06;;;6.07;100.00
9289;BME280;4683;50.864;12.086;2022-12-24T23:29:09;99358.78;;;6.17;100.00
9289;BME280;4683;50.864;12.086;2022-12-24T23:31:38;99363.75;;;6.20;100.00
9289;BME280;4683;50.864;12.086;2022-12-24T23:34:07;99361.94;;;6.20;100.00
9289;BME280;4683;50.864;12.086;2022-12-24T23:36:35;99357.00;;;6.17;100.00
9289;BME280;4683;50.864;12.086;2022-12-24T23:39:05;99346.28;;;6.10;100.00
9289;BME280;4683;50.864;12.086;2022-12-24T23:41:33;99348.94;;;6.01;100.00
9289;BME280;4683;50.864;12.086;2022-12-24T23:44:04;99347.03;;;5.93;100.00
9289;BME280;4683;50.864;12.086;2022-12-24T23:46:35;99333.69;;;5.87;100.00
9289;BME280;4683;50.864;12.086;2022-12-24T23:49:04;99327.91;;;5.83;100.00
9289;BME280;4683;50.864;12.086;2022-12-24T23:51:33;99325.44;;;5.81;100.00
9289;BME280;4683;50.864;12.086;2022-12-24T23:54:03;99325.13;;;5.84;100.00
9289;BME280;4683;50.864;12.086;2022-12-24T23:56:32;99332.16;;;5.84;100.00
9289;BME280;4683;50.864;12.086;2022-12-24T23:59:03;99325.13;;;5.84;100.00
